sensor_id;sensor_type;location;lat;lon;timestamp;P1;durP1;ratioP1;P2;durP2;ratioP2
19089;SDS011;9677;50.656;13.064;2023-08-12T00:00:25;10.00;;;9.00;;
19089;SDS011;9677;50.656;13.064;2023-08-12T00:02:54;9.93;;;9.03;;
19089;SDS011;9677;50.656;13.064;2023-08-12T00:05:22;9.87;;;8.97;;
19089;SDS011;9677;50.656;13.064;2023-08-12T00:07:50;9.70;;;8.80;;
19089;SDS011;9677;50.656;13.064;2023-08-12T00:10:19;10.10;;;9.10;;
19089;SDS011;9677;50.656;13.064;2023-08-12T00:12:47;9.90;;;9.00;;
19089;SDS011;9677;50.656;13.064;2023-08-12T00:15:16;9.70;;;8.80;;
19089;SDS011;9677;50.656;13.064;2023-08-12T00:17:45;10.03;;;9.03;;
19089;SDS011;9677;50.656;13.064;2023-08-12T00:20:13;9.83;;;8.90;;
19089;SDS011;9677;50.656;13.064;2023-08-12T00:22:41;9.90;;;8.90;;
19089;SDS011;9677;50.656;13.064;2023-08-12T00:25:10;11.80;;;9.03;;
19089;SDS011;9677;50.656;13.064;2023-08-12T00:27:38;9.83;;;8.93;;
19089;SDS011;9677;50.656;13.064;2023-08-12T00:30:06;10.00;;;9.00;;
19089;SDS011;9677;50.656;13.064;2023-08-12T00:32:37;9.63;;;8.73;;
19089;SDS011;9677;50.656;13.064;2023-08-12T00:35:07;9.80;;;8.90;;
19089;SDS011;9677;50.656;13.064;2023-08-12T00:37:36;9.87;;;8.93;;
19089;SDS011;9677;50.656;13.064;2023-08-12T00:40:05;10.00;;;9.00;;
19089;SDS011;9677;50.656;13.064;2023-08-12T00:42:34;10.20;;;9.30;;
19089;SDS011;9677;50.656;13.064;2023-08-12T00:45:02;10.07;;;9.07;;
19089;SDS011;9677;50.656;13.064;2023-08-12T00:47:33;9.97;;;9.00;;
19089;SDS011;9677;50.656;13.064;2023-08-12T00:50:03;10.30;;;9.20;;
19089;SDS011;9677;50.656;13.064;2023-08-12T00:52:33;10.27;;;9.27;;
19089;SDS011;9677;50.656;13.064;2023-08-12T00:55:02;10.30;;;8.90;;
19089;SDS011;9677;50.656;13.064;2023-08-12T00:57:31;9.60;;;8.70;;
19089;SDS011;9677;50.656;13.064;2023-08-12T00:59:59;9.90;;;9.00;;
19089;SDS011;9677;50.656;13.064;2023-08-12T01:02:28;10.27;;;9.20;;
19089;SDS011;9677;50.656;13.064;2023-08-12T01:04:56;10.07;;;9.17;;
19089;SDS011;9677;50.656;13.064;2023-08-12T01:07:26;10.30;;;9.30;;
19089;SDS011;9677;50.656;13.064;2023-08-12T01:09:54;10.00;;;9.10;;
19089;SDS011;9677;50.656;13.064;2023-08-12T01:12:24;10.07;;;9.07;;
19089;SDS011;9677;50.656;13.064;2023-08-12T01:15:01;9.90;;;8.90;;
19089;SDS011;9677;50.656;13.064;2023-08-12T01:17:36;10.17;;;9.17;;
19089;SDS011;9677;50.656;13.064;2023-08-12T01:20:08;9.90;;;8.90;;
19089;SDS011;9677;50.656;13.064;2023-08-12T01:22:40;9.90;;;9.00;;
19089;SDS011;9677;50.656;13.064;2023-08-12T01:25:13;10.23;;;9.13;;
19089;SDS011;9677;50.656;13.064;2023-08-12T01:27:41;9.70;;;8.80;;
19089;SDS011;9677;50.656;13.064;2023-08-12T01:30:09;10.20;;;9.20;;
19089;SDS011;9677;50.656;13.064;2023-08-12T01:32:39;10.03;;;9.03;;
19089;SDS011;9677;50.656;13.064;2023-08-12T01:35:14;10.20;;;9.20;;
19089;SDS011;9677;50.656;13.064;2023-08-12T01:37:47;10.10;;;9.07;;
19089;SDS011;9677;50.656;13.064;2023-08-12T01:40:22;9.90;;;9.00;;
19089;SDS011;9677;50.656;13.064;2023-08-12T01:42:51;10.17;;;9.13;;
19089;SDS011;9677;50.656;13.064;2023-08-12T01:45:20;10.40;;;9.40;;
19089;SDS011;9677;50.656;13.064;2023-08-12T01:47:49;10.13;;;9.23;;
19089;SDS011;9677;50.656;13.064;2023-08-12T01:50:18;9.73;;;8.83;;
19089;SDS011;9677;50.656;13.064;2023-08-12T01:52:48;10.27;;;8.97;;
19089;SDS011;9677;50.656;13.064;2023-08-12T01:55:16;9.97;;;9.07;;
19089;SDS011;9677;50.656;13.064;2023-08-12T01:57:46;10.10;;;9.10;;
19089;SDS011;9677;50.656;13.064;2023-08-12T02:00:15;10.30;;;9.30;;
19089;SDS011;9677;50.656;13.064;2023-08-12T02:02:43;10.30;;;9.30;;
19089;SDS011;9677;50.656;13.064;2023-08-12T02:05:13;9.73;;;8.83;;
19089;SDS011;9677;50.656;13.064;2023-08-12T02:07:42;9.87;;;8.97;;
19089;SDS011;9677;50.656;13.064;2023-08-12T02:10:11;9.67;;;8.77;;
19089;SDS011;9677;50.656;13.064;2023-08-12T02:12:41;9.53;;;8.63;;
19089;SDS011;9677;50.656;13.064;2023-08-12T02:15:12;9.97;;;9.00;;
19089;SDS011;9677;50.656;13.064;2023-08-12T02:17:40;9.90;;;8.90;;
19089;SDS011;9677;50.656;13.064;2023-08-12T02:20:08;9.80;;;8.90;;
19089;SDS011;9677;50.656;13.064;2023-08-12T02:22:38;10.00;;;9.00;;
19089;SDS011;9677;50.656;13.064;2023-08-12T02:25:06;9.67;;;8.77;;
19089;SDS011;9677;50.656;13.064;2023-08-12T02:27:35;10.23;;;9.23;;
19089;SDS011;9677;50.656;13.064;2023-08-12T02:30:04;9.90;;;9.00;;
19089;SDS011;9677;50.656;13.064;2023-08-12T02:32:35;10.20;;;9.20;;
19089;SDS011;9677;50.656;13.064;2023-08-12T02:35:03;10.40;;;9.40;;
19089;SDS011;9677;50.656;13.064;2023-08-12T02:37:33;9.70;;;8.80;;
19089;SDS011;9677;50.656;13.064;2023-08-12T02:40:01;9.90;;;8.93;;
19089;SDS011;9677;50.656;13.064;2023-08-12T02:42:32;9.97;;;9.07;;
19089;SDS011;9677;50.656;13.064;2023-08-12T02:45:00;9.83;;;8.93;;
19089;SDS011;9677;50.656;13.064;2023-08-12T02:47:29;9.60;;;8.70;;
19089;SDS011;9677;50.656;13.064;2023-08-12T02:49:58;10.00;;;9.10;;
19089;SDS011;9677;50.656;13.064;2023-08-12T02:52:27;10.00;;;9.00;;
19089;SDS011;9677;50.656;13.064;2023-08-12T02:54:55;10.10;;;9.10;;
19089;SDS011;9677;50.656;13.064;2023-08-12T02:57:24;10.20;;;9.20;;
19089;SDS011;9677;50.656;13.064;2023-08-12T02:59:52;10.10;;;9.10;;
19089;SDS011;9677;50.656;13.064;2023-08-12T03:02:20;9.60;;;8.70;;
19089;SDS011;9677;50.656;13.064;2023-08-12T03:04:48;9.80;;;8.90;;
19089;SDS011;9677;50.656;13.064;2023-08-12T03:07:18;10.50;;;9.50;;
19089;SDS011;9677;50.656;13.064;2023-08-12T03:09:47;9.70;;;8.80;;
19089;SDS011;9677;50.656;13.064;2023-08-12T03:12:15;9.83;;;8.87;;
19089;SDS011;9677;50.656;13.064;2023-08-12T03:14:43;10.20;;;9.20;;
19089;SDS011;9677;50.656;13.064;2023-08-12T03:17:11;9.90;;;9.00;;
19089;SDS011;9677;50.656;13.064;2023-08-12T03:19:40;9.77;;;8.87;;
19089;SDS011;9677;50.656;13.064;2023-08-12T03:22:09;9.83;;;8.93;;
19089;SDS011;9677;50.656;13.064;2023-08-12T03:24:40;9.90;;;9.00;;
19089;SDS011;9677;50.656;13.064;2023-08-12T03:27:08;9.70;;;8.80;;
19089;SDS011;9677;50.656;13.064;2023-08-12T03:29:37;9.77;;;8.87;;
19089;SDS011;9677;50.656;13.064;2023-08-12T03:32:06;9.70;;;8.80;;
19089;SDS011;9677;50.656;13.064;2023-08-12T03:34:34;9.90;;;9.00;;
19089;SDS011;9677;50.656;13.064;2023-08-12T03:37:03;10.10;;;9.10;;
19089;SDS011;9677;50.656;13.064;2023-08-12T03:39:32;10.00;;;9.10;;
19089;SDS011;9677;50.656;13.064;2023-08-12T03:42:02;10.03;;;9.10;;
19089;SDS011;9677;50.656;13.064;2023-08-12T03:44:30;9.83;;;8.93;;
19089;SDS011;9677;50.656;13.064;2023-08-12T03:46:59;10.20;;;9.20;;
19089;SDS011;9677;50.656;13.064;2023-08-12T03:49:27;10.20;;;9.20;;
19089;SDS011;9677;50.656;13.064;2023-08-12T03:51:56;10.10;;;9.07;;
19089;SDS011;9677;50.656;13.064;2023-08-12T03:54:25;9.87;;;8.87;;
19089;SDS011;9677;50.656;13.064;2023-08-12T03:56:53;10.17;;;9.17;;
19089;SDS011;9677;50.656;13.064;2023-08-12T03:59:23;9.70;;;8.80;;
19089;SDS011;9677;50.656;13.064;2023-08-12T04:01:52;9.60;;;8.70;;
19089;SDS011;9677;50.656;13.064;2023-08-12T04:04:20;9.60;;;8.70;;
19089;SDS011;9677;50.656;13.064;2023-08-12T04:06:48;9.63;;;8.73;;
19089;SDS011;9677;50.656;13.064;2023-08-12T04:09:18;9.90;;;9.00;;
19089;SDS011;9677;50.656;13.064;2023-08-12T04:11:46;10.20;;;9.20;;
19089;SDS011;9677;50.656;13.064;2023-08-12T04:14:15;9.70;;;8.80;;
19089;SDS011;9677;50.656;13.064;2023-08-12T04:16:45;10.27;;;9.27;;
19089;SDS011;9677;50.656;13.064;2023-08-12T04:19:16;10.10;;;9.17;;
19089;SDS011;9677;50.656;13.064;2023-08-12T04:21:44;9.90;;;9.00;;
19089;SDS011;9677;50.656;13.064;2023-08-12T04:24:13;10.10;;;9.10;;
19089;SDS011;9677;50.656;13.064;2023-08-12T04:26:41;9.80;;;8.90;;
19089;SDS011;9677;50.656;13.064;2023-08-12T04:29:09;9.80;;;8.80;;
19089;SDS011;9677;50.656;13.064;2023-08-12T04:31:40;9.70;;;8.80;;
19089;SDS011;9677;50.656;13.064;2023-08-12T04:34:10;9.80;;;8.90;;
19089;SDS011;9677;50.656;13.064;2023-08-12T04:36:38;13.13;;;9.13;;
19089;SDS011;9677;50.656;13.064;2023-08-12T04:39:10;9.77;;;8.83;;
19089;SDS011;9677;50.656;13.064;2023-08-12T04:41:38;9.70;;;8.80;;
19089;SDS011;9677;50.656;13.064;2023-08-12T04:44:08;9.80;;;8.90;;
19089;SDS011;9677;50.656;13.064;2023-08-12T04:46:36;10.10;;;9.20;;
19089;SDS011;9677;50.656;13.064;2023-08-12T04:49:05;10.20;;;9.20;;
19089;SDS011;9677;50.656;13.064;2023-08-12T04:51:35;10.00;;;9.00;;
19089;SDS011;9677;50.656;13.064;2023-08-12T04:54:03;10.17;;;9.17;;
19089;SDS011;9677;50.656;13.064;2023-08-12T04:56:32;9.93;;;9.03;;
19089;SDS011;9677;50.656;13.064;2023-08-12T04:59:01;9.73;;;8.83;;
19089;SDS011;9677;50.656;13.064;2023-08-12T05:01:30;10.33;;;9.33;;
19089;SDS011;9677;50.656;13.064;2023-08-12T05:03:58;9.60;;;8.70;;
19089;SDS011;9677;50.656;13.064;2023-08-12T05:06:27;9.70;;;8.80;;
19089;SDS011;9677;50.656;13.064;2023-08-12T05:08:57;9.73;;;8.83;;
19089;SDS011;9677;50.656;13.064;2023-08-12T05:11:26;9.70;;;8.80;;
19089;SDS011;9677;50.656;13.064;2023-08-12T05:13:55;9.70;;;8.80;;
19089;SDS011;9677;50.656;13.064;2023-08-12T05:16:23;9.80;;;8.80;;
19089;SDS011;9677;50.656;13.064;2023-08-12T05:18:52;9.40;;;8.50;;
19089;SDS011;9677;50.656;13.064;2023-08-12T05:21:20;10.07;;;9.10;;
19089;SDS011;9677;50.656;13.064;2023-08-12T05:23:49;9.87;;;8.97;;
19089;SDS011;9677;50.656;13.064;2023-08-12T05:26:19;9.63;;;8.73;;
19089;SDS011;9677;50.656;13.064;2023-08-12T05:28:47;9.33;;;8.53;;
19089;SDS011;9677;50.656;13.064;2023-08-12T05:31:15;9.47;;;8.63;;
19089;SDS011;9677;50.656;13.064;2023-08-12T05:33:43;9.73;;;8.83;;
19089;SDS011;9677;50.656;13.064;2023-08-12T05:36:11;9.97;;;8.97;;
19089;SDS011;9677;50.656;13.064;2023-08-12T05:38:40;9.90;;;9.00;;
19089;SDS011;9677;50.656;13.064;2023-08-12T05:41:08;9.70;;;8.80;;
19089;SDS011;9677;50.656;13.064;2023-08-12T05:43:37;9.60;;;8.70;;
19089;SDS011;9677;50.656;13.064;2023-08-12T05:46:06;9.50;;;8.60;;
19089;SDS011;9677;50.656;13.064;2023-08-12T05:48:34;9.90;;;8.90;;
19089;SDS011;9677;50.656;13.064;2023-08-12T05:51:02;11.90;;;8.90;;
19089;SDS011;9677;50.656;13.064;2023-08-12T05:53:31;10.03;;;9.10;;
19089;SDS011;9677;50.656;13.064;2023-08-12T05:55:59;9.77;;;8.87;;
19089;SDS011;9677;50.656;13.064;2023-08-12T05:58:28;9.53;;;8.63;;
19089;SDS011;9677;50.656;13.064;2023-08-12T06:00:57;9.60;;;8.70;;
19089;SDS011;9677;50.656;13.064;2023-08-12T06:03:26;10.07;;;9.07;;
19089;SDS011;9677;50.656;13.064;2023-08-12T06:05:54;9.90;;;8.90;;
19089;SDS011;9677;50.656;13.064;2023-08-12T06:08:22;9.80;;;8.90;;
19089;SDS011;9677;50.656;13.064;2023-08-12T06:10:50;9.60;;;8.70;;
19089;SDS011;9677;50.656;13.064;2023-08-12T06:13:18;9.77;;;8.87;;
19089;SDS011;9677;50.656;13.064;2023-08-12T06:15:47;9.80;;;8.90;;
19089;SDS011;9677;50.656;13.064;2023-08-12T06:18:16;9.87;;;8.97;;
19089;SDS011;9677;50.656;13.064;2023-08-12T06:20:44;9.50;;;8.60;;
19089;SDS011;9677;50.656;13.064;2023-08-12T06:23:12;9.60;;;8.70;;
19089;SDS011;9677;50.656;13.064;2023-08-12T06:25:41;9.97;;;8.97;;
19089;SDS011;9677;50.656;13.064;2023-08-12T06:28:09;9.60;;;8.60;;
19089;SDS011;9677;50.656;13.064;2023-08-12T06:30:37;9.70;;;8.80;;
19089;SDS011;9677;50.656;13.064;2023-08-12T06:33:05;9.53;;;8.63;;
19089;SDS011;9677;50.656;13.064;2023-08-12T06:35:35;9.70;;;8.80;;
19089;SDS011;9677;50.656;13.064;2023-08-12T06:38:03;9.40;;;8.60;;
19089;SDS011;9677;50.656;13.064;2023-08-12T06:40:31;9.40;;;8.50;;
19089;SDS011;9677;50.656;13.064;2023-08-12T06:42:59;9.60;;;8.70;;
19089;SDS011;9677;50.656;13.064;2023-08-12T06:45:27;9.70;;;8.70;;
19089;SDS011;9677;50.656;13.064;2023-08-12T06:47:56;9.57;;;8.60;;
19089;SDS011;9677;50.656;13.064;2023-08-12T06:50:24;9.57;;;8.67;;
19089;SDS011;9677;50.656;13.064;2023-08-12T06:52:53;9.90;;;8.90;;
19089;SDS011;9677;50.656;13.064;2023-08-12T06:55:22;9.67;;;8.77;;
19089;SDS011;9677;50.656;13.064;2023-08-12T06:57:50;9.10;;;8.30;;
19089;SDS011;9677;50.656;13.064;2023-08-12T07:00:19;9.60;;;8.70;;
19089;SDS011;9677;50.656;13.064;2023-08-12T07:02:47;9.50;;;8.60;;
19089;SDS011;9677;50.656;13.064;2023-08-12T07:05:15;9.40;;;8.50;;
19089;SDS011;9677;50.656;13.064;2023-08-12T07:07:44;9.50;;;8.60;;
19089;SDS011;9677;50.656;13.064;2023-08-12T07:10:13;9.10;;;8.30;;
19089;SDS011;9677;50.656;13.064;2023-08-12T07:12:41;9.70;;;8.80;;
19089;SDS011;9677;50.656;13.064;2023-08-12T07:15:10;9.60;;;8.70;;
19089;SDS011;9677;50.656;13.064;2023-08-12T07:17:38;9.30;;;8.40;;
19089;SDS011;9677;50.656;13.064;2023-08-12T07:20:07;9.50;;;8.60;;
19089;SDS011;9677;50.656;13.064;2023-08-12T07:22:36;9.70;;;8.70;;
19089;SDS011;9677;50.656;13.064;2023-08-12T07:25:04;9.30;;;8.40;;
19089;SDS011;9677;50.656;13.064;2023-08-12T07:27:34;9.80;;;8.90;;
19089;SDS011;9677;50.656;13.064;2023-08-12T07:30:03;9.40;;;8.50;;
19089;SDS011;9677;50.656;13.064;2023-08-12T07:32:34;10.20;;;8.60;;
19089;SDS011;9677;50.656;13.064;2023-08-12T07:35:04;9.00;;;8.20;;
19089;SDS011;9677;50.656;13.064;2023-08-12T07:37:33;9.50;;;8.60;;
19089;SDS011;9677;50.656;13.064;2023-08-12T07:40:02;9.00;;;8.20;;
19089;SDS011;9677;50.656;13.064;2023-08-12T07:42:31;9.07;;;8.27;;
19089;SDS011;9677;50.656;13.064;2023-08-12T07:45:01;9.13;;;8.33;;
19089;SDS011;9677;50.656;13.064;2023-08-12T07:47:30;9.40;;;8.50;;
19089;SDS011;9677;50.656;13.064;2023-08-12T07:49:58;9.27;;;8.37;;
19089;SDS011;9677;50.656;13.064;2023-08-12T07:52:26;9.30;;;8.40;;
19089;SDS011;9677;50.656;13.064;2023-08-12T07:54:54;9.30;;;8.40;;
19089;SDS011;9677;50.656;13.064;2023-08-12T07:57:23;9.37;;;8.57;;
19089;SDS011;9677;50.656;13.064;2023-08-12T07:59:51;9.00;;;8.20;;
19089;SDS011;9677;50.656;13.064;2023-08-12T08:02:21;9.40;;;8.50;;
19089;SDS011;9677;50.656;13.064;2023-08-12T08:04:49;9.37;;;8.47;;
19089;SDS011;9677;50.656;13.064;2023-08-12T08:07:17;8.93;;;8.13;;
19089;SDS011;9677;50.656;13.064;2023-08-12T08:09:45;9.00;;;8.10;;
19089;SDS011;9677;50.656;13.064;2023-08-12T08:12:13;8.80;;;8.00;;
19089;SDS011;9677;50.656;13.064;2023-08-12T08:14:42;9.10;;;8.30;;
19089;SDS011;9677;50.656;13.064;2023-08-12T08:17:10;9.23;;;8.33;;
19089;SDS011;9677;50.656;13.064;2023-08-12T08:19:40;9.23;;;8.43;;
19089;SDS011;9677;50.656;13.064;2023-08-12T08:22:08;8.90;;;8.10;;
19089;SDS011;9677;50.656;13.064;2023-08-12T08:24:37;8.90;;;8.03;;
19089;SDS011;9677;50.656;13.064;2023-08-12T08:27:05;9.10;;;8.30;;
19089;SDS011;9677;50.656;13.064;2023-08-12T08:29:33;9.33;;;8.53;;
19089;SDS011;9677;50.656;13.064;2023-08-12T08:32:02;9.00;;;8.20;;
19089;SDS011;9677;50.656;13.064;2023-08-12T08:34:30;9.03;;;8.23;;
19089;SDS011;9677;50.656;13.064;2023-08-12T08:37:00;9.83;;;8.83;;
19089;SDS011;9677;50.656;13.064;2023-08-12T08:39:29;9.40;;;8.50;;
19089;SDS011;9677;50.656;13.064;2023-08-12T08:41:57;9.20;;;8.40;;
19089;SDS011;9677;50.656;13.064;2023-08-12T08:44:28;8.90;;;8.10;;
19089;SDS011;9677;50.656;13.064;2023-08-12T08:46:58;9.10;;;8.23;;
19089;SDS011;9677;50.656;13.064;2023-08-12T08:49:26;8.90;;;8.10;;
19089;SDS011;9677;50.656;13.064;2023-08-12T08:51:59;9.17;;;8.37;;
19089;SDS011;9677;50.656;13.064;2023-08-12T08:54:28;8.77;;;7.93;;
19089;SDS011;9677;50.656;13.064;2023-08-12T08:56:56;8.77;;;7.97;;
19089;SDS011;9677;50.656;13.064;2023-08-12T08:59:35;8.80;;;8.00;;
19089;SDS011;9677;50.656;13.064;2023-08-12T09:02:03;8.93;;;8.13;;
19089;SDS011;9677;50.656;13.064;2023-08-12T09:04:32;8.83;;;8.03;;
19089;SDS011;9677;50.656;13.064;2023-08-12T09:07:03;8.83;;;8.03;;
19089;SDS011;9677;50.656;13.064;2023-08-12T09:09:32;8.60;;;7.87;;
19089;SDS011;9677;50.656;13.064;2023-08-12T09:12:01;9.00;;;8.20;;
19089;SDS011;9677;50.656;13.064;2023-08-12T09:14:32;9.00;;;8.20;;
19089;SDS011;9677;50.656;13.064;2023-08-12T09:17:02;9.30;;;8.40;;
19089;SDS011;9677;50.656;13.064;2023-08-12T09:19:30;8.70;;;7.90;;
19089;SDS011;9677;50.656;13.064;2023-08-12T09:21:58;8.43;;;7.70;;
19089;SDS011;9677;50.656;13.064;2023-08-12T09:24:28;8.90;;;8.10;;
19089;SDS011;9677;50.656;13.064;2023-08-12T09:26:56;8.63;;;7.93;;
19089;SDS011;9677;50.656;13.064;2023-08-12T09:29:26;9.00;;;8.10;;
19089;SDS011;9677;50.656;13.064;2023-08-12T09:32:09;9.10;;;8.20;;
19089;SDS011;9677;50.656;13.064;2023-08-12T09:34:45;8.90;;;8.10;;
19089;SDS011;9677;50.656;13.064;2023-08-12T09:37:15;9.23;;;8.33;;
19089;SDS011;9677;50.656;13.064;2023-08-12T09:39:45;9.17;;;8.27;;
19089;SDS011;9677;50.656;13.064;2023-08-12T09:42:14;9.07;;;8.17;;
19089;SDS011;9677;50.656;13.064;2023-08-12T09:44:44;9.20;;;8.30;;
19089;SDS011;9677;50.656;13.064;2023-08-12T09:47:13;9.30;;;8.40;;
19089;SDS011;9677;50.656;13.064;2023-08-12T09:49:41;8.50;;;7.80;;
19089;SDS011;9677;50.656;13.064;2023-08-12T09:52:09;9.07;;;8.27;;
19089;SDS011;9677;50.656;13.064;2023-08-12T09:54:38;9.53;;;8.37;;
19089;SDS011;9677;50.656;13.064;2023-08-12T09:57:08;9.30;;;8.40;;
19089;SDS011;9677;50.656;13.064;2023-08-12T09:59:38;8.97;;;8.17;;
19089;SDS011;9677;50.656;13.064;2023-08-12T10:02:09;9.40;;;8.50;;
19089;SDS011;9677;50.656;13.064;2023-08-12T10:04:45;9.03;;;8.23;;
19089;SDS011;9677;50.656;13.064;2023-08-12T10:07:17;9.00;;;8.20;;
19089;SDS011;9677;50.656;13.064;2023-08-12T10:09:47;9.00;;;8.20;;
19089;SDS011;9677;50.656;13.064;2023-08-12T10:12:17;9.13;;;8.33;;
19089;SDS011;9677;50.656;13.064;2023-08-12T10:14:46;8.97;;;8.17;;
19089;SDS011;9677;50.656;13.064;2023-08-12T10:17:15;9.40;;;8.50;;
19089;SDS011;9677;50.656;13.064;2023-08-12T10:20:04;9.33;;;8.50;;
19089;SDS011;9677;50.656;13.064;2023-08-12T10:22:35;9.10;;;8.30;;
19089;SDS011;9677;50.656;13.064;2023-08-12T10:25:04;9.20;;;8.40;;
19089;SDS011;9677;50.656;13.064;2023-08-12T10:27:37;9.27;;;8.40;;
19089;SDS011;9677;50.656;13.064;2023-08-12T10:30:05;9.40;;;8.50;;
19089;SDS011;9677;50.656;13.064;2023-08-12T10:32:35;9.30;;;8.40;;
19089;SDS011;9677;50.656;13.064;2023-08-12T10:35:05;9.30;;;8.40;;
19089;SDS011;9677;50.656;13.064;2023-08-12T10:37:35;8.90;;;8.10;;
19089;SDS011;9677;50.656;13.064;2023-08-12T10:40:03;9.20;;;8.30;;
19089;SDS011;9677;50.656;13.064;2023-08-12T10:42:42;9.50;;;8.60;;
19089;SDS011;9677;50.656;13.064;2023-08-12T10:45:12;9.67;;;8.77;;
19089;SDS011;9677;50.656;13.064;2023-08-12T10:47:42;9.63;;;8.60;;
19089;SDS011;9677;50.656;13.064;2023-08-12T10:50:18;9.60;;;8.70;;
19089;SDS011;9677;50.656;13.064;2023-08-12T10:52:51;9.30;;;8.40;;
19089;SDS011;9677;50.656;13.064;2023-08-12T10:55:21;9.37;;;8.47;;
19089;SDS011;9677;50.656;13.064;2023-08-12T10:57:52;9.30;;;8.40;;
19089;SDS011;9677;50.656;13.064;2023-08-12T11:00:23;10.20;;;8.77;;
19089;SDS011;9677;50.656;13.064;2023-08-12T11:02:53;9.03;;;8.23;;
19089;SDS011;9677;50.656;13.064;2023-08-12T11:05:23;9.50;;;8.60;;
19089;SDS011;9677;50.656;13.064;2023-08-12T11:07:55;9.40;;;8.50;;
19089;SDS011;9677;50.656;13.064;2023-08-12T11:10:27;9.30;;;8.40;;
19089;SDS011;9677;50.656;13.064;2023-08-12T11:13:02;9.60;;;8.70;;
19089;SDS011;9677;50.656;13.064;2023-08-12T11:15:31;9.63;;;8.73;;
19089;SDS011;9677;50.656;13.064;2023-08-12T11:18:01;9.80;;;8.90;;
19089;SDS011;9677;50.656;13.064;2023-08-12T11:20:31;9.73;;;8.80;;
19089;SDS011;9677;50.656;13.064;2023-08-12T11:23:00;9.50;;;8.60;;
19089;SDS011;9677;50.656;13.064;2023-08-12T11:25:30;9.57;;;8.67;;
19089;SDS011;9677;50.656;13.064;2023-08-12T11:28:00;9.50;;;8.60;;
19089;SDS011;9677;50.656;13.064;2023-08-12T11:30:31;9.60;;;8.70;;
19089;SDS011;9677;50.656;13.064;2023-08-12T11:33:00;9.20;;;8.40;;
19089;SDS011;9677;50.656;13.064;2023-08-12T11:35:30;9.63;;;8.70;;
19089;SDS011;9677;50.656;13.064;2023-08-12T11:37:58;9.50;;;8.60;;
19089;SDS011;9677;50.656;13.064;2023-08-12T11:40:27;9.00;;;8.20;;
19089;SDS011;9677;50.656;13.064;2023-08-12T11:42:56;9.53;;;8.53;;
19089;SDS011;9677;50.656;13.064;2023-08-12T11:45:25;9.47;;;8.57;;
19089;SDS011;9677;50.656;13.064;2023-08-12T11:47:54;9.53;;;8.63;;
19089;SDS011;9677;50.656;13.064;2023-08-12T11:50:23;9.43;;;8.53;;
19089;SDS011;9677;50.656;13.064;2023-08-12T11:52:55;9.30;;;8.50;;
19089;SDS011;9677;50.656;13.064;2023-08-12T11:55:24;11.20;;;9.07;;
19089;SDS011;9677;50.656;13.064;2023-08-12T11:57:53;10.20;;;8.70;;
19089;SDS011;9677;50.656;13.064;2023-08-12T12:00:21;9.10;;;8.30;;
19089;SDS011;9677;50.656;13.064;2023-08-12T12:02:54;8.90;;;8.10;;
19089;SDS011;9677;50.656;13.064;2023-08-12T12:05:25;9.13;;;8.33;;
19089;SDS011;9677;50.656;13.064;2023-08-12T12:07:56;9.07;;;8.27;;
19089;SDS011;9677;50.656;13.064;2023-08-12T12:10:26;9.30;;;8.40;;
19089;SDS011;9677;50.656;13.064;2023-08-12T12:13:01;9.10;;;8.30;;
19089;SDS011;9677;50.656;13.064;2023-08-12T12:15:37;9.00;;;8.20;;
19089;SDS011;9677;50.656;13.064;2023-08-12T12:18:09;9.00;;;8.20;;
19089;SDS011;9677;50.656;13.064;2023-08-12T12:20:42;8.50;;;7.73;;
19089;SDS011;9677;50.656;13.064;2023-08-12T12:23:22;8.53;;;7.77;;
19089;SDS011;9677;50.656;13.064;2023-08-12T12:25:56;8.87;;;8.10;;
19089;SDS011;9677;50.656;13.064;2023-08-12T12:28:26;9.03;;;8.23;;
19089;SDS011;9677;50.656;13.064;2023-08-12T12:30:56;8.40;;;7.70;;
19089;SDS011;9677;50.656;13.064;2023-08-12T12:33:24;8.80;;;8.00;;
19089;SDS011;9677;50.656;13.064;2023-08-12T12:35:53;8.57;;;7.87;;
19089;SDS011;9677;50.656;13.064;2023-08-12T12:38:26;8.80;;;8.00;;
19089;SDS011;9677;50.656;13.064;2023-08-12T12:40:54;8.90;;;8.10;;
19089;SDS011;9677;50.656;13.064;2023-08-12T12:43:23;8.67;;;7.93;;
19089;SDS011;9677;50.656;13.064;2023-08-12T12:45:52;9.00;;;8.00;;
19089;SDS011;9677;50.656;13.064;2023-08-12T12:48:21;9.03;;;8.23;;
19089;SDS011;9677;50.656;13.064;2023-08-12T12:50:49;8.90;;;8.10;;
19089;SDS011;9677;50.656;13.064;2023-08-12T12:53:18;8.90;;;8.10;;
19089;SDS011;9677;50.656;13.064;2023-08-12T12:55:46;9.10;;;8.20;;
19089;SDS011;9677;50.656;13.064;2023-08-12T12:58:14;9.13;;;8.33;;
19089;SDS011;9677;50.656;13.064;2023-08-12T13:00:43;8.90;;;8.10;;
19089;SDS011;9677;50.656;13.064;2023-08-12T13:03:11;8.70;;;7.90;;
19089;SDS011;9677;50.656;13.064;2023-08-12T13:05:41;9.00;;;8.20;;
19089;SDS011;9677;50.656;13.064;2023-08-12T13:08:10;8.47;;;7.70;;
19089;SDS011;9677;50.656;13.064;2023-08-12T13:10:38;8.63;;;7.93;;
19089;SDS011;9677;50.656;13.064;2023-08-12T13:13:07;8.70;;;8.00;;
19089;SDS011;9677;50.656;13.064;2023-08-12T13:15:35;8.67;;;7.90;;
19089;SDS011;9677;50.656;13.064;2023-08-12T13:18:04;8.93;;;8.13;;
19089;SDS011;9677;50.656;13.064;2023-08-12T13:20:32;8.50;;;7.80;;
19089;SDS011;9677;50.656;13.064;2023-08-12T13:23:01;8.90;;;8.10;;
19089;SDS011;9677;50.656;13.064;2023-08-12T13:25:31;8.90;;;8.13;;
19089;SDS011;9677;50.656;13.064;2023-08-12T13:28:01;8.83;;;8.03;;
19089;SDS011;9677;50.656;13.064;2023-08-12T13:30:30;8.60;;;7.90;;
19089;SDS011;9677;50.656;13.064;2023-08-12T13:32:59;8.97;;;8.17;;
19089;SDS011;9677;50.656;13.064;2023-08-12T13:35:27;8.70;;;8.00;;
19089;SDS011;9677;50.656;13.064;2023-08-12T13:37:55;9.03;;;8.23;;
19089;SDS011;9677;50.656;13.064;2023-08-12T13:40:25;8.77;;;8.07;;
19089;SDS011;9677;50.656;13.064;2023-08-12T13:42:54;9.07;;;8.20;;
19089;SDS011;9677;50.656;13.064;2023-08-12T13:45:22;8.70;;;7.90;;
19089;SDS011;9677;50.656;13.064;2023-08-12T13:47:50;8.70;;;7.90;;
19089;SDS011;9677;50.656;13.064;2023-08-12T13:50:19;8.40;;;7.70;;
19089;SDS011;9677;50.656;13.064;2023-08-12T13:52:48;8.70;;;7.90;;
19089;SDS011;9677;50.656;13.064;2023-08-12T13:55:17;9.00;;;8.20;;
19089;SDS011;9677;50.656;13.064;2023-08-12T13:57:46;8.60;;;7.80;;
19089;SDS011;9677;50.656;13.064;2023-08-12T14:00:15;9.07;;;8.27;;
19089;SDS011;9677;50.656;13.064;2023-08-12T14:02:43;8.70;;;8.00;;
19089;SDS011;9677;50.656;13.064;2023-08-12T14:05:13;8.70;;;7.97;;
19089;SDS011;9677;50.656;13.064;2023-08-12T14:07:41;8.50;;;7.77;;
19089;SDS011;9677;50.656;13.064;2023-08-12T14:10:10;8.33;;;7.63;;
19089;SDS011;9677;50.656;13.064;2023-08-12T14:12:38;8.80;;;7.90;;
19089;SDS011;9677;50.656;13.064;2023-08-12T14:15:07;8.60;;;7.90;;
19089;SDS011;9677;50.656;13.064;2023-08-12T14:17:36;8.63;;;7.93;;
19089;SDS011;9677;50.656;13.064;2023-08-12T14:20:05;8.80;;;8.03;;
19089;SDS011;9677;50.656;13.064;2023-08-12T14:22:35;8.53;;;7.83;;
19089;SDS011;9677;50.656;13.064;2023-08-12T14:25:03;8.70;;;7.90;;
19089;SDS011;9677;50.656;13.064;2023-08-12T14:27:33;8.80;;;8.00;;
19089;SDS011;9677;50.656;13.064;2023-08-12T14:30:01;8.87;;;8.07;;
19089;SDS011;9677;50.656;13.064;2023-08-12T14:32:31;8.60;;;7.70;;
19089;SDS011;9677;50.656;13.064;2023-08-12T14:35:00;8.57;;;7.77;;
19089;SDS011;9677;50.656;13.064;2023-08-12T14:37:28;8.60;;;7.80;;
19089;SDS011;9677;50.656;13.064;2023-08-12T14:39:56;9.00;;;8.20;;
19089;SDS011;9677;50.656;13.064;2023-08-12T14:42:24;8.70;;;8.00;;
19089;SDS011;9677;50.656;13.064;2023-08-12T14:44:53;8.77;;;7.97;;
19089;SDS011;9677;50.656;13.064;2023-08-12T14:47:21;9.00;;;8.20;;
19089;SDS011;9677;50.656;13.064;2023-08-12T14:49:51;8.63;;;7.93;;
19089;SDS011;9677;50.656;13.064;2023-08-12T14:52:20;8.87;;;8.10;;
19089;SDS011;9677;50.656;13.064;2023-08-12T14:54:48;8.70;;;7.93;;
19089;SDS011;9677;50.656;13.064;2023-08-12T14:57:17;8.50;;;7.70;;